地図

経路データ

SID SEASON NUMBER BASIN SUBBASIN NAME ISO_TIME NATURE LAT LON WMO_WIND WMO_PRES WMO_AGENCY TRACK_TYPE DIST2LAND LANDFALL IFLAG USA_AGENCY USA_ATCF_ID USA_LAT USA_LON USA_RECORD USA_STATUS USA_WIND USA_PRES USA_SSHS USA_R34_NE USA_R34_SE USA_R34_SW USA_R34_NW USA_R50_NE USA_R50_SE USA_R50_SW USA_R50_NW USA_R64_NE USA_R64_SE USA_R64_SW USA_R64_NW USA_POCI USA_ROCI USA_RMW USA_EYE TOKYO_LAT TOKYO_LON TOKYO_GRADE TOKYO_WIND TOKYO_PRES TOKYO_R50_DIR TOKYO_R50_LONG TOKYO_R50_SHORT TOKYO_R30_DIR TOKYO_R30_LONG TOKYO_R30_SHORT TOKYO_LAND CMA_LAT CMA_LON CMA_CAT CMA_WIND CMA_PRES HKO_LAT HKO_LON HKO_CAT HKO_WIND HKO_PRES NEWDELHI_LAT NEWDELHI_LON NEWDELHI_GRADE NEWDELHI_WIND NEWDELHI_PRES NEWDELHI_CI NEWDELHI_DP NEWDELHI_POCI REUNION_LAT REUNION_LON REUNION_TYPE REUNION_WIND REUNION_PRES REUNION_TNUM REUNION_CI REUNION_RMW REUNION_R34_NE REUNION_R34_SE REUNION_R34_SW REUNION_R34_NW REUNION_R50_NE REUNION_R50_SE REUNION_R50_SW REUNION_R50_NW REUNION_R64_NE REUNION_R64_SE REUNION_R64_SW REUNION_R64_NW BOM_LAT BOM_LON BOM_TYPE BOM_WIND BOM_PRES BOM_TNUM BOM_CI BOM_RMW BOM_R34_NE BOM_R34_SE BOM_R34_SW BOM_R34_NW BOM_R50_NE BOM_R50_SE BOM_R50_SW BOM_R50_NW BOM_R64_NE BOM_R64_SE BOM_R64_SW BOM_R64_NW BOM_ROCI BOM_POCI BOM_EYE BOM_POS_METHOD BOM_PRES_METHOD NADI_LAT NADI_LON NADI_CAT NADI_WIND NADI_PRES WELLINGTON_LAT WELLINGTON_LON WELLINGTON_WIND WELLINGTON_PRES DS824_LAT DS824_LON DS824_STAGE DS824_WIND DS824_PRES TD9636_LAT TD9636_LON TD9636_STAGE TD9636_WIND TD9636_PRES TD9635_LAT TD9635_LON TD9635_WIND TD9635_PRES TD9635_ROCI NEUMANN_LAT NEUMANN_LON NEUMANN_CLASS NEUMANN_WIND NEUMANN_PRES MLC_LAT MLC_LON MLC_CLASS MLC_WIND MLC_PRES USA_GUST BOM_GUST BOM_GUST_PER REUNION_GUST REUNION_GUST_PER USA_SEAHGT USA_SEARAD_NE USA_SEARAD_SE USA_SEARAD_SW USA_SEARAD_NW STORM_SPEED STORM_DIR
1919236N19088 1919 27 NI BB NOT_NAMED 1919-08-24 00:00:00 TS 18.8000 88.1000 main 222 222 _________O____ -1 18.8000 88.1000 TC 30 0 0
1919236N19088 1919 27 NI BB NOT_NAMED 1919-08-24 03:00:00 TS 18.8000 88.1000 main 222 222 _________PO___ -1 18.8000 88.1000 TC 30 18.8000 88.1000 1 0 0
1919236N19088 1919 27 NI BB NOT_NAMED 1919-08-24 06:00:00 TS 18.8019 88.0919 main 222 222 _________OP___ -1 18.8000 88.1000 TC 30 18.8048 88.0797 1 0 0
1919236N19088 1919 27 NI BB NOT_NAMED 1919-08-24 09:00:00 TS 18.8033 88.0861 main 222 222 _________PP___ -1 18.8000 88.1000 TC 30 18.8076 88.0676 1 0 0
1919236N19088 1919 27 NI BB NOT_NAMED 1919-08-24 12:00:00 TS 18.8033 88.0858 main 222 222 _________OP___ -1 18.8000 88.1000 TC 30 18.8067 88.0716 1 0 0
1919236N19088 1919 27 NI BB NOT_NAMED 1919-08-24 15:00:00 TS 18.8000 88.1000 main 222 222 _________PO___ -1 18.8000 88.1000 TC 30 18.8000 88.1000 1 0 104
1919236N19088 1919 27 NI BB NOT_NAMED 1919-08-24 18:00:00 TS 18.7938 88.1264 main 222 222 _________OP___ -1 18.8000 88.1000 TC 30 18.7876 88.1527 1 1 103
1919236N19088 1919 27 NI BB NOT_NAMED 1919-08-24 21:00:00 TS 18.7848 88.1749 main 229 229 _________PP___ -1 18.7924 88.1525 TC 30 18.7771 88.1973 1 0 0
1919236N19088 1919 27 NI BB NOT_NAMED 1919-08-25 00:00:00 TS 18.7890 88.1466 main 222 214 _________OP___ -1 18.8000 88.1000 TC 30 18.7781 88.1932 1 2 279
1919236N19088 1919 27 NI BB NOT_NAMED 1919-08-25 03:00:00 TS 18.8176 87.9475 main 206 175 _________PO___ -1 18.8352 87.7950 TC 30 18.8000 88.1000 1 5 279
1919236N19088 1919 27 NI BB NOT_NAMED 1919-08-25 06:00:00 TS 18.8668 87.6220 main 175 155 _________OP___ -1 18.9000 87.4000 TC 30 18.8337 87.8441 1 6 281
1919236N19088 1919 27 NI BB NOT_NAMED 1919-08-25 09:00:00 TS 18.9342 87.2900 main 155 128 _________PP___ -1 18.9775 87.0775 TC 30 18.8908 87.5025 1 6 286
1919236N19088 1919 27 NI BB NOT_NAMED 1919-08-25 12:00:00 TS 19.0387 86.9673 main 128 94 _________OP___ -1 19.1000 86.8000 TC 30 18.9775 87.1347 1 6 294
1919236N19088 1919 27 NI BB NOT_NAMED 1919-08-25 15:00:00 TS 19.1925 86.6888 main 94 67 _________PO___ -1 19.2849 86.5775 TC 30 19.1000 86.8000 1 6 308
1919236N19088 1919 27 NI BB NOT_NAMED 1919-08-25 18:00:00 TS 19.3982 86.4769 main 67 39 _________OP___ -1 19.5000 86.4000 TC 30 19.2964 86.5537 1 6 319
1919236N19088 1919 27 NI BB NOT_NAMED 1919-08-25 21:00:00 TS 19.6261 86.2865 main 39 15 _________PP___ -1 19.7300 86.2200 TC 30 19.5223 86.3529 1 5 324
1919236N19088 1919 27 NI BB NOT_NAMED 1919-08-26 00:00:00 TS 19.8185 86.1503 main 15 0 _________OP___ -1 19.9000 86.1000 TC 30 19.7371 86.2006 1 3 327
1919236N19088 1919 27 NI BB NOT_NAMED 1919-08-26 03:00:00 TS 19.9150 86.0887 main 0 0 _________PO___ -1 19.9300 86.0774 TC 30 19.9000 86.1000 1 1 327
1919236N19088 1919 27 NI BB NOT_NAMED 1919-08-26 06:00:00 TS 19.9287 86.0747 main 0 0 _________OP___ -1 19.9000 86.1000 TC 30 19.9574 86.0494 1 0 0
1919236N19088 1919 27 NI BB NOT_NAMED 1919-08-26 09:00:00 TS 19.9299 86.0736 main 0 0 _________PP___ -1 19.9000 86.1000 TC 30 19.9599 86.0472 1 0 0
1919236N19088 1919 27 NI BB NOT_NAMED 1919-08-26 12:00:00 TS 19.9162 86.0857 main 0 0 _________OP___ -1 19.9000 86.1000 TC 30 19.9324 86.0714 1 0 139
1919236N19088 1919 27 NI BB NOT_NAMED 1919-08-26 15:00:00 TS 19.9000 86.1000 main 0 0 _________PO___ -1 19.9000 86.1000 TC 30 19.9000 86.1000 1 1 153
1919236N19088 1919 27 NI BB NOT_NAMED 1919-08-26 18:00:00 TS 19.8552 86.1320 main 0 0 _________OP___ -1 19.9000 86.1000 TC 30 19.8103 86.1640 1 1 145
1919236N19088 1919 27 NI BB NOT_NAMED 1919-08-26 21:00:00 TS 19.7872 86.1814 main 15 15 _________PP___ -1 19.8399 86.1448 TC 30 19.7345 86.2181 1 0 151
1919236N19088 1919 27 NI BB NOT_NAMED 1919-08-27 00:00:00 TS 19.8207 86.1566 main 15 0 _________OP___ -1 19.9000 86.1000 TC 30 19.7414 86.2132 1 3 325
1919236N19088 1919 27 NI BB NOT_NAMED 1919-08-27 03:00:00 TS 20.0475 85.9873 main 0 0 _________PO___ -1 20.1949 85.8746 TC 30 19.9000 86.1000 1 8 325
1919236N19088 1919 27 NI BB NOT_NAMED 1919-08-27 06:00:00 TS 20.5044 85.6564 main 0 0 _________OP___ -1 20.7000 85.5000 TC 30 20.3087 85.8127 1 13 326
1919236N19088 1919 27 NI BB NOT_NAMED 1919-08-27 09:00:00 TS 21.1294 85.2118 main 0 0 _________PP___ -1 21.3928 85.0084 TC 30 20.8659 85.4151 1 16 326
1919236N19088 1919 27 NI BB NOT_NAMED 1919-08-27 12:00:00 TS 21.7950 84.7298 main 0 0 _________OP___ -1 22.1000 84.5000 TC 30 21.4901 84.9596 1 15 326
1919236N19088 1919 27 NI BB NOT_NAMED 1919-08-27 15:00:00 TS 22.3436 84.3171 main 0 0 _________PO___ -1 22.5872 84.1341 TC 30 22.1000 84.5000 1 12 324
1919236N19088 1919 27 NI BB NOT_NAMED 1919-08-27 18:00:00 TS 22.8056 83.9467 main 0 0 _________OP___ -1 23.0000 83.8000 TC 30 22.6112 84.0934 1 12 323
1919236N19088 1919 27 NI BB NOT_NAMED 1919-08-27 21:00:00 TS 23.2851 83.5377 main 0 0 _________PP___ -1 23.4801 83.3778 TC 30 23.0900 83.6977 1 12 322
1919236N19088 1919 27 NI BB NOT_NAMED 1919-08-28 00:00:00 TS 23.7119 83.1640 main 0 0 _________OP___ -1 23.9000 83.0000 TC 30 23.5238 83.3280 1 10 322
1919236N19088 1919 27 NI BB NOT_NAMED 1919-08-28 03:00:00 TS 24.0399 82.8885 main 0 0 _________PO___ -1 24.1798 82.7770 TC 30 23.9000 83.0000 1 7 323
1919236N19088 1919 27 NI BB NOT_NAMED 1919-08-28 06:00:00 TS 24.3035 82.6672 main 0 0 _________OP___ -1 24.4000 82.6000 TC 30 24.2069 82.7345 1 7 321
1919236N19088 1919 27 NI BB NOT_NAMED 1919-08-28 09:00:00 TS 24.5546 82.4341 main 0 0 _________PP___ -1 24.6500 82.3574 TC 30 24.4592 82.5107 1 6 319
1919236N19088 1919 27 NI BB NOT_NAMED 1919-08-28 12:00:00 TS 24.7910 82.2033 main 0 0 _________OP___ -1 24.9000 82.1000 TC 30 24.6820 82.3066 1 6 318
1919236N19088 1919 27 NI BB NOT_NAMED 1919-08-28 15:00:00 TS 25.0250 81.9749 main 0 0 _________PO___ -1 25.1500 81.8499 TC 30 24.9000 82.1000 1 7 319
1919236N19088 1919 27 NI BB NOT_NAMED 1919-08-28 18:00:00 TS 25.2830 81.7346 main 0 0 _________OP___ -1 25.4000 81.6000 TC 30 25.1660 81.8692 1 7 320
1919236N19088 1919 27 NI BB NOT_NAMED 1919-08-28 21:00:00 TS 25.5473 81.4937 main 0 0 _________PP___ -1 25.6649 81.3575 TC 30 25.4296 81.6299 1 7 318
1919236N19088 1919 27 NI BB NOT_NAMED 1919-08-29 00:00:00 TS 25.7892 81.2378 main 0 0 _________OP___ -1 25.9000 81.1000 TC 30 25.6785 81.3755 1 7 312
1919236N19088 1919 27 NI BB NOT_NAMED 1919-08-29 03:00:00 TS 25.9825 80.9574 main 0 0 _________PO___ -1 26.0649 80.8148 TC 30 25.9000 81.1000 1 6 304
1919236N19088 1919 27 NI BB NOT_NAMED 1919-08-29 06:00:00 TS 26.1435 80.6461 main 0 0 _________OP___ -1 26.2000 80.5000 TC 30 26.0869 80.7923 1 7 299
1919236N19088 1919 27 NI BB NOT_NAMED 1919-08-29 09:00:00 TS 26.3013 80.3074 main 0 0 _________PP___ -1 26.3575 80.1500 TC 30 26.2451 80.4647 1 7 296
1919236N19088 1919 27 NI BB NOT_NAMED 1919-08-29 12:00:00 TS 26.4403 79.9649 main 0 0 _________OP___ -1 26.5000 79.8000 TC 30 26.3807 80.1298 1 6 293
1919236N19088 1919 27 NI BB NOT_NAMED 1919-08-29 15:00:00 TS 26.5537 79.6462 main 0 0 _________PO___ -1 26.6074 79.4924 TC 30 26.5000 79.8000 1 6 291
1919236N19088 1919 27 NI BB NOT_NAMED 1919-08-29 18:00:00 TS 26.6479 79.3628 main 0 0 _________OP___ -1 26.7000 79.2000 TC 30 26.6089 79.4849 1 5 290
1919236N19088 1919 27 NI BB NOT_NAMED 1919-08-29 21:00:00 TS 26.7452 79.0708 main 0 0 _________PP___ -1 26.7977 78.9026 TC 30 26.7103 79.1828 1 5 290
1919236N19088 1919 27 NI BB NOT_NAMED 1919-08-30 00:00:00 TS 26.8377 78.7929 main 0 0 _________OP___ -1 26.9000 78.6000 TC 30 26.8065 78.8894 1 4 290
1919236N19088 1919 27 NI BB NOT_NAMED 1919-08-30 03:00:00 NR 26.9000 78.6000 main 0 __________O___ -1 TC 26.9000 78.6000 1 4 290

IBTrACS Databaseについて

本データベースは、米国NOAAが公開する1842年以降の世界の熱帯低気圧のベストトラックデータアーカイブInternational Best Track Archive for Climate Stewardship (IBTrACS)を、ウェブで閲覧しやすい形式に変換したものです。

最終更新日:2021-12-06